createdAt,value
2022-09-09T00:02:11.741Z,81.22
2022-09-09T00:04:39.041Z,80.92
2022-09-09T00:07:15.609Z,81.19
2022-09-09T00:10:14.798Z,80.43
2022-09-09T00:12:52.246Z,79.54
2022-09-09T00:15:18.693Z,80.73
2022-09-09T00:17:55.240Z,80.75
2022-09-09T00:20:31.770Z,80.67
2022-09-09T00:23:10.300Z,79.77
2022-09-09T00:26:09.154Z,80.13
2022-09-09T00:28:35.265Z,80.61
2022-09-09T00:30:58.654Z,80.43
2022-09-09T00:33:23.925Z,80.79
2022-09-09T00:35:49.470Z,81.20
2022-09-09T00:38:36.181Z,80.54
2022-09-09T00:41:25.316Z,80.17
2022-09-09T00:43:58.484Z,80.81
2022-09-09T00:46:30.027Z,81.84
2022-09-09T00:49:12.983Z,81.67
2022-09-09T00:52:00.187Z,82.84
2022-09-09T00:54:27.907Z,81.43
2022-09-09T00:57:02.333Z,80.85
2022-09-09T00:59:41.654Z,79.97
2022-09-09T01:02:14.388Z,79.67
2022-09-09T01:04:38.021Z,79.32
2022-09-09T01:07:10.326Z,78.83
2022-09-09T01:09:56.735Z,78.52
2022-09-09T01:12:42.789Z,78.51
2022-09-09T01:15:12.889Z,79.59
2022-09-09T01:17:56.970Z,80.03
2022-09-09T01:20:25.106Z,79.34
2022-09-09T01:23:04.996Z,78.81
2022-09-09T01:25:31.092Z,79.32
2022-09-09T01:27:57.437Z,82.92
2022-09-09T01:30:19.400Z,81.21
2022-09-09T01:32:50.779Z,80.44
2022-09-09T01:35:33.310Z,80.03
2022-09-09T01:37:55.019Z,80.90
2022-09-09T01:40:16.693Z,80.56
2022-09-09T01:42:38.322Z,81.10
2022-09-09T01:44:59.853Z,80.43
2022-09-09T01:47:21.358Z,81.67
2022-09-09T01:49:43.011Z,81.14
2022-09-09T01:52:04.830Z,80.58
2022-09-09T01:54:32.176Z,80.95
2022-09-09T01:57:05.964Z,80.67
2022-09-09T01:59:55.344Z,79.93
2022-09-09T02:02:38.870Z,81.35
2022-09-09T02:05:35.379Z,81.50
2022-09-09T02:08:12.006Z,81.44
2022-09-09T02:10:45.874Z,84.23
2022-09-09T02:13:19.769Z,83.92
2022-09-09T02:16:01.145Z,83.81
2022-09-09T02:18:31.433Z,82.72
2022-09-09T02:20:54.725Z,83.00
2022-09-09T02:23:16.370Z,84.56
2022-09-09T02:25:38.494Z,83.21
2022-09-09T02:28:00.331Z,82.81
2022-09-09T02:30:22.153Z,82.49
2022-09-09T02:32:45.917Z,82.37
2022-09-09T02:35:11.424Z,81.92
2022-09-09T02:37:38.168Z,81.95
2022-09-09T02:39:59.845Z,83.22
2022-09-09T02:42:21.651Z,82.97
2022-09-09T02:44:43.317Z,82.39
2022-09-09T02:47:10.887Z,82.17
2022-09-09T02:49:52.601Z,81.88
2022-09-09T02:52:23.525Z,81.44
2022-09-09T02:54:46.021Z,81.62
2022-09-09T02:57:19.180Z,83.75
2022-09-09T02:59:42.487Z,83.48
2022-09-09T03:02:04.502Z,82.97
2022-09-09T03:04:26.284Z,83.45
2022-09-09T03:06:47.868Z,82.80
2022-09-09T03:09:11.438Z,83.52
2022-09-09T03:11:33.187Z,82.73
2022-09-09T03:13:57.047Z,83.34
2022-09-09T03:16:18.807Z,84.64
2022-09-09T03:18:40.366Z,84.74
2022-09-09T03:21:02.056Z,83.99
2022-09-09T03:23:23.949Z,83.17
2022-09-09T03:25:52.273Z,82.73
2022-09-09T03:28:14.044Z,82.43
2022-09-09T03:30:35.637Z,82.66
2022-09-09T03:32:57.751Z,82.58
2022-09-09T03:35:19.572Z,83.34
2022-09-09T03:37:41.047Z,82.68
2022-09-09T03:40:02.987Z,82.33
2022-09-09T03:42:24.512Z,82.10
2022-09-09T03:44:50.995Z,82.53
2022-09-09T03:47:12.476Z,82.36
2022-09-09T03:49:33.885Z,82.07
2022-09-09T03:51:58.144Z,82.18
2022-09-09T03:54:19.566Z,83.28
2022-09-09T03:56:42.769Z,83.06
2022-09-09T03:59:05.025Z,82.95
2022-09-09T04:01:26.496Z,83.24
2022-09-09T04:03:47.965Z,83.17
2022-09-09T04:06:12.868Z,83.44
2022-09-09T04:08:36.699Z,83.14
2022-09-09T04:10:58.995Z,83.07
2022-09-09T04:13:20.884Z,82.82
2022-09-09T04:15:42.349Z,82.75
2022-09-09T04:18:03.887Z,82.52
2022-09-09T04:20:25.421Z,82.92
2022-09-09T04:22:46.831Z,82.97
2022-09-09T04:25:08.772Z,83.95
2022-09-09T04:27:30.211Z,84.76
2022-09-09T04:29:51.657Z,84.13
2022-09-09T04:32:13.069Z,85.65
2022-09-09T04:34:34.477Z,85.05
2022-09-09T04:36:57.875Z,85.49
2022-09-09T04:39:20.614Z,84.81
2022-09-09T04:41:42.534Z,84.71
2022-09-09T04:44:03.996Z,84.18
2022-09-09T04:46:26.359Z,83.82
2022-09-09T04:48:48.029Z,83.62
2022-09-09T04:51:12.578Z,83.32
2022-09-09T04:53:35.305Z,83.66
2022-09-09T04:56:12.225Z,83.16
2022-09-09T04:58:34.263Z,83.31
2022-09-09T05:00:55.770Z,83.42
2022-09-09T05:03:17.673Z,83.19
2022-09-09T05:05:39.181Z,83.13
2022-09-09T05:08:07.910Z,83.06
2022-09-09T05:10:29.390Z,83.35
2022-09-09T05:12:54.851Z,83.00
2022-09-09T05:15:16.268Z,83.20
2022-09-09T05:17:37.686Z,84.24
2022-09-09T05:19:59.774Z,83.02
2022-09-09T05:22:22.382Z,84.39
2022-09-09T05:24:43.851Z,85.21
2022-09-09T05:27:06.317Z,86.07
2022-09-09T05:29:28.412Z,85.53
2022-09-09T05:31:49.938Z,86.23
2022-09-09T05:34:11.521Z,86.32
2022-09-09T05:36:33.500Z,85.50
2022-09-09T05:38:54.992Z,84.38
2022-09-09T05:41:18.247Z,84.59
2022-09-09T05:43:40.179Z,85.31
2022-09-09T05:46:02.554Z,84.77
2022-09-09T05:48:24.058Z,84.67
2022-09-09T05:50:55.683Z,84.09
2022-09-09T05:53:18.091Z,84.60
2022-09-09T05:55:39.539Z,85.31
2022-09-09T05:58:01.078Z,85.02
2022-09-09T06:00:22.671Z,84.44
2022-09-09T06:02:44.828Z,85.29
2022-09-09T06:05:06.865Z,84.30
2022-09-09T06:07:28.284Z,84.64
2022-09-09T06:09:49.754Z,84.34
2022-09-09T06:12:11.171Z,84.33
2022-09-09T06:14:33.244Z,84.72
2022-09-09T06:16:54.733Z,83.79
2022-09-09T06:19:16.226Z,83.29
2022-09-09T06:21:38.311Z,83.29
2022-09-09T06:24:01.364Z,84.71
2022-09-09T06:26:26.427Z,83.97
2022-09-09T06:28:50.882Z,83.89
2022-09-09T06:31:14.752Z,83.81
2022-09-09T06:33:42.027Z,82.74
2022-09-09T06:36:07.115Z,82.97
2022-09-09T06:38:28.914Z,83.74
2022-09-09T06:40:55.824Z,85.09
2022-09-09T06:43:18.031Z,84.00
2022-09-09T06:45:39.472Z,84.71
2022-09-09T06:48:00.902Z,83.55
2022-09-09T06:50:22.353Z,82.58
2022-09-09T06:52:48.693Z,82.90
2022-09-09T06:55:10.389Z,82.97
2022-09-09T06:57:37.243Z,82.41
2022-09-09T06:59:59.238Z,82.87
2022-09-09T07:02:21.042Z,82.04
2022-09-09T07:04:42.485Z,81.63
2022-09-09T07:07:04.029Z,80.87
2022-09-09T07:09:25.508Z,81.28
2022-09-09T07:11:49.701Z,79.89
2022-09-09T07:14:15.052Z,79.75
2022-09-09T07:16:38.284Z,79.77
2022-09-09T07:18:59.867Z,79.26
2022-09-09T07:21:21.965Z,78.94
2022-09-09T07:23:44.196Z,79.06
2022-09-09T07:26:14.376Z,79.96
2022-09-09T07:28:36.092Z,78.72
2022-09-09T07:30:59.491Z,78.23
2022-09-09T07:33:21.115Z,77.40
2022-09-09T07:35:43.758Z,77.12
2022-09-09T07:38:07.803Z,77.23
2022-09-09T07:40:30.075Z,77.13
2022-09-09T07:42:51.485Z,75.33
2022-09-09T07:45:13.199Z,73.50
2022-09-09T07:47:34.660Z,73.45
2022-09-09T07:49:56.926Z,72.21
2022-09-09T07:52:20.043Z,71.29
2022-09-09T07:54:42.777Z,70.92
2022-09-09T07:57:05.278Z,69.20
2022-09-09T07:59:26.718Z,69.67
2022-09-09T08:01:54.451Z,68.57
2022-09-09T08:04:20.751Z,69.94
2022-09-09T08:06:59.749Z,69.89
2022-09-09T08:09:22.410Z,71.33
2022-09-09T08:11:44.357Z,71.52
2022-09-09T08:14:07.148Z,72.24
2022-09-09T08:16:32.316Z,71.45
2022-09-09T08:18:55.123Z,71.64
2022-09-09T08:21:19.038Z,73.99
2022-09-09T08:23:42.636Z,72.74
2022-09-09T08:26:05.824Z,73.88
2022-09-09T08:28:27.353Z,75.47
2022-09-09T08:30:49.066Z,74.69
2022-09-09T08:33:10.652Z,75.61
2022-09-09T08:35:33.581Z,74.59
2022-09-09T08:37:56.255Z,75.37
2022-09-09T08:40:27.437Z,73.51
2022-09-09T08:42:55.495Z,74.36
2022-09-09T08:46:01.370Z,72.41
2022-09-09T08:48:39.235Z,73.01
2022-09-09T08:51:03.134Z,72.05
2022-09-09T08:53:31.395Z,71.99
2022-09-09T08:56:00.301Z,71.32
2022-09-09T08:58:31.518Z,73.57
2022-09-09T09:01:01.877Z,72.50
2022-09-09T09:03:34.291Z,71.62
2022-09-09T09:06:11.602Z,69.13
2022-09-09T09:08:42.285Z,68.41
2022-09-09T09:11:04.265Z,70.36
2022-09-09T09:13:46.760Z,70.57
2022-09-09T09:16:27.866Z,70.49
2022-09-09T09:18:49.634Z,67.93
2022-09-09T09:21:26.310Z,68.04
2022-09-09T09:24:01.374Z,66.94
2022-09-09T09:26:27.365Z,67.35
2022-09-09T09:28:48.838Z,66.35
2022-09-09T09:31:12.574Z,66.73
2022-09-09T09:33:50.592Z,65.50
2022-09-09T09:36:14.892Z,63.34
2022-09-09T09:41:33.953Z,61.53
2022-09-09T09:43:55.788Z,60.05
2022-09-09T09:46:24.395Z,59.13
2022-09-09T09:48:47.403Z,58.03
2022-09-09T09:51:11.629Z,57.31
2022-09-09T09:53:35.224Z,57.06
2022-09-09T09:56:06.007Z,56.91
2022-09-09T09:58:51.132Z,56.25
2022-09-09T10:01:25.865Z,54.19
2022-09-09T10:03:53.078Z,54.50
2022-09-09T10:06:14.501Z,53.46
2022-09-09T10:08:47.454Z,53.03
2022-09-09T10:14:06.367Z,53.25
2022-09-09T10:17:05.289Z,54.43
2022-09-09T10:19:35.695Z,54.09
2022-09-09T10:22:07.738Z,53.18
2022-09-09T10:24:32.102Z,53.42
2022-09-09T10:27:01.120Z,53.95
2022-09-09T10:30:09.885Z,54.44
2022-09-09T10:32:46.766Z,55.43
2022-09-09T10:35:26.760Z,55.35
2022-09-09T10:38:03.524Z,54.83
2022-09-09T10:40:39.891Z,55.13
2022-09-09T10:43:35.414Z,56.47
2022-09-09T10:46:04.539Z,54.41
2022-09-09T10:48:39.416Z,53.61
2022-09-09T10:51:12.035Z,52.95
2022-09-09T10:53:47.380Z,53.58
2022-09-09T10:56:12.864Z,55.74
2022-09-09T10:58:47.695Z,54.50
2022-09-09T11:01:34.606Z,53.58
2022-09-09T11:04:07.079Z,53.41
2022-09-09T11:06:53.372Z,54.45
2022-09-09T11:09:22.359Z,53.06
2022-09-09T11:11:54.929Z,52.40
2022-09-09T11:14:25.451Z,51.38
2022-09-09T11:16:52.214Z,51.15
2022-09-09T11:19:26.760Z,49.77
2022-09-09T11:21:53.066Z,49.18
2022-09-09T11:24:23.630Z,47.93
2022-09-09T11:26:53.582Z,48.76
2022-09-09T11:29:45.752Z,48.54
2022-09-09T11:32:26.655Z,46.61
2022-09-09T11:34:55.606Z,45.83
2022-09-09T11:37:22.939Z,46.14
2022-09-09T11:40:10.906Z,45.00
2022-09-09T11:42:32.876Z,44.25
2022-09-09T11:44:55.979Z,44.02
2022-09-09T11:47:25.640Z,42.37
2022-09-09T11:49:47.056Z,41.16
2022-09-09T11:52:23.508Z,42.02
2022-09-09T11:54:50.164Z,43.55
2022-09-09T11:57:26.902Z,43.90
2022-09-09T11:59:56.512Z,45.49
2022-09-09T12:02:25.142Z,45.26
2022-09-09T12:05:12.617Z,45.35
2022-09-09T12:07:39.933Z,45.20
2022-09-09T12:10:09.382Z,45.86
2022-09-09T12:12:34.390Z,46.57
2022-09-09T12:15:02.594Z,45.90
2022-09-09T12:17:26.000Z,45.34
2022-09-09T12:19:48.479Z,44.77
2022-09-09T12:23:01.922Z,43.70
2022-09-09T12:25:45.245Z,43.31
2022-09-09T12:28:19.832Z,43.34
2022-09-09T12:31:03.640Z,44.71
2022-09-09T12:33:25.794Z,43.71
2022-09-09T12:36:01.647Z,41.16
2022-09-09T12:38:33.576Z,41.58
2022-09-09T12:40:58.052Z,41.34
2022-09-09T12:43:22.332Z,40.34
2022-09-09T12:45:44.159Z,37.48
2022-09-09T12:48:13.305Z,38.72
2022-09-09T12:50:57.267Z,40.38
2022-09-09T12:53:31.020Z,39.72
2022-09-09T12:55:56.985Z,38.20
2022-09-09T12:58:20.399Z,36.39
2022-09-09T13:00:51.952Z,36.65
2022-09-09T13:03:24.549Z,36.67
2022-09-09T13:05:47.849Z,37.15
2022-09-09T13:08:12.930Z,36.03
2022-09-09T13:10:52.489Z,35.96
2022-09-09T13:13:23.193Z,36.64
2022-09-09T13:15:56.346Z,36.39
2022-09-09T13:18:23.227Z,37.25
2022-09-09T13:20:49.103Z,37.37
2022-09-09T13:23:13.327Z,37.79
2022-09-09T13:25:37.903Z,37.88
2022-09-09T13:28:04.634Z,38.10
2022-09-09T13:30:45.075Z,37.79
2022-09-09T13:33:13.193Z,38.56
2022-09-09T13:35:35.265Z,39.06
2022-09-09T13:37:57.499Z,38.96
2022-09-09T13:40:22.597Z,39.24
2022-09-09T13:42:45.696Z,39.64
2022-09-09T13:45:16.936Z,40.76
2022-09-09T13:47:38.411Z,43.05
2022-09-09T13:49:59.933Z,43.74
2022-09-09T13:52:23.237Z,43.86
2022-09-09T13:54:52.260Z,44.27
2022-09-09T13:57:19.548Z,45.04
2022-09-09T14:00:03.649Z,45.60
2022-09-09T14:02:24.239Z,45.98
2022-09-09T14:04:46.281Z,46.13
2022-09-09T14:07:13.228Z,45.77
2022-09-09T14:09:35.082Z,45.85
2022-09-09T14:11:56.497Z,45.82
2022-09-09T14:14:17.931Z,46.92
2022-09-09T14:16:39.370Z,46.80
2022-09-09T14:19:00.992Z,46.96
2022-09-09T14:21:22.641Z,48.19
2022-09-09T14:23:44.043Z,51.37
2022-09-09T14:26:06.995Z,52.26
2022-09-09T14:28:51.964Z,53.65
2022-09-09T14:31:11.717Z,52.99
2022-09-09T14:33:33.261Z,56.01
2022-09-09T14:35:58.918Z,56.43
2022-09-09T14:38:20.705Z,54.76
2022-09-09T14:40:42.135Z,53.48
2022-09-09T14:43:05.036Z,54.91
2022-09-09T14:45:27.290Z,53.42
2022-09-09T14:47:50.714Z,53.90
2022-09-09T14:50:13.377Z,53.63
2022-09-09T14:52:34.986Z,52.83
2022-09-09T14:54:56.410Z,54.22
2022-09-09T14:57:17.810Z,53.77
2022-09-09T14:59:39.287Z,52.24
2022-09-09T15:02:05.002Z,52.63
2022-09-09T15:04:26.574Z,52.16
2022-09-09T15:06:49.363Z,51.30
2022-09-09T15:09:10.969Z,49.48
2022-09-09T15:11:38.695Z,49.12
2022-09-09T15:14:00.335Z,46.47
2022-09-09T15:16:24.762Z,45.45
2022-09-09T15:18:47.510Z,44.68
2022-09-09T15:21:12.724Z,44.35
2022-09-09T15:23:34.644Z,43.36
2022-09-09T15:25:57.541Z,43.69
2022-09-09T15:28:19.020Z,43.87
2022-09-09T15:30:40.590Z,44.26
2022-09-09T15:33:02.073Z,44.82
2022-09-09T15:35:23.534Z,45.32
2022-09-09T15:37:45.310Z,46.08
2022-09-09T15:40:07.623Z,45.93
2022-09-09T15:42:29.094Z,46.89
2022-09-09T15:44:50.510Z,47.58
2022-09-09T15:47:14.215Z,47.65
2022-09-09T15:49:35.651Z,47.21
2022-09-09T15:51:59.446Z,45.52
2022-09-09T15:54:24.835Z,46.33
2022-09-09T15:56:49.303Z,46.67
2022-09-09T15:59:10.786Z,46.93
2022-09-09T16:01:33.428Z,47.17
2022-09-09T16:03:55.235Z,46.15
2022-09-09T16:06:19.110Z,47.24
2022-09-09T16:08:44.017Z,47.36
2022-09-09T16:11:11.618Z,47.13
2022-09-09T16:13:35.153Z,46.90
2022-09-09T16:15:56.667Z,47.45
2022-09-09T16:18:19.287Z,48.11
2022-09-09T16:20:41.381Z,48.26
2022-09-09T16:23:02.939Z,47.51
2022-09-09T16:25:24.381Z,48.07
2022-09-09T16:27:45.803Z,48.51
2022-09-09T16:30:07.853Z,49.54
2022-09-09T16:32:29.256Z,50.68
2022-09-09T16:34:50.718Z,50.92
2022-09-09T16:37:12.263Z,50.73
2022-09-09T16:39:33.766Z,50.53
2022-09-09T16:41:55.249Z,50.93
2022-09-09T16:44:19.742Z,51.40
2022-09-09T16:46:43.348Z,51.15
2022-09-09T16:49:07.341Z,51.45
2022-09-09T16:51:34.419Z,51.24
2022-09-09T16:53:56.500Z,51.63
2022-09-09T16:56:21.342Z,51.58
2022-09-09T16:58:44.101Z,52.03
2022-09-09T17:01:06.396Z,52.59
2022-09-09T17:03:27.825Z,52.37
2022-09-09T17:05:49.240Z,52.79
2022-09-09T17:08:11.111Z,53.93
2022-09-09T17:10:33.112Z,53.48
2022-09-09T17:12:54.526Z,54.39
2022-09-09T17:15:16.375Z,55.03
2022-09-09T17:17:37.787Z,55.73
2022-09-09T17:19:59.251Z,56.09
2022-09-09T17:22:24.369Z,55.76
2022-09-09T17:24:46.691Z,56.35
2022-09-09T17:27:08.453Z,56.69
2022-09-09T17:29:29.883Z,56.87
2022-09-09T17:31:51.848Z,57.29
2022-09-09T17:34:13.473Z,57.76
2022-09-09T17:36:35.488Z,58.53
2022-09-09T17:38:57.675Z,58.72
2022-09-09T17:41:22.460Z,58.98
2022-09-09T17:43:44.285Z,59.94
2022-09-09T17:46:30.146Z,59.13
2022-09-09T17:48:55.462Z,59.50
2022-09-09T17:51:21.135Z,58.82
2022-09-09T17:53:48.217Z,58.02
2022-09-09T17:56:11.883Z,57.43
2022-09-09T17:58:33.529Z,57.99
2022-09-09T18:00:55.894Z,59.49
2022-09-09T18:03:17.576Z,59.90
2022-09-09T18:05:39.145Z,59.21
2022-09-09T18:08:00.554Z,59.64
2022-09-09T18:10:21.980Z,59.36
2022-09-09T18:12:43.396Z,59.61
2022-09-09T18:15:05.432Z,59.04
2022-09-09T18:17:28.090Z,58.74
2022-09-09T18:19:50.079Z,58.72
2022-09-09T18:22:11.520Z,58.70
2022-09-09T18:24:33.724Z,58.75
2022-09-09T18:26:55.266Z,60.31
2022-09-09T18:29:24.085Z,61.01
2022-09-09T18:31:47.592Z,61.79
2022-09-09T18:34:11.024Z,62.81
2022-09-09T18:36:36.003Z,62.71
2022-09-09T18:38:59.365Z,62.33
2022-09-09T18:41:23.793Z,61.75
2022-09-09T18:43:45.556Z,61.52
2022-09-09T18:46:07.024Z,61.42
2022-09-09T18:48:28.475Z,61.25
2022-09-09T18:50:49.886Z,60.92
2022-09-09T18:53:11.286Z,61.01
2022-09-09T18:55:33.316Z,62.22
2022-09-09T18:57:55.085Z,62.42
2022-09-09T19:00:16.579Z,61.85
2022-09-09T19:02:38.891Z,62.18
2022-09-09T19:05:00.298Z,62.08
2022-09-09T19:07:21.756Z,62.39
2022-09-09T19:09:43.182Z,62.17
2022-09-09T19:12:05.736Z,62.28
2022-09-09T19:14:28.078Z,61.96
2022-09-09T19:16:49.540Z,62.73
2022-09-09T19:19:14.669Z,62.46
2022-09-09T19:21:38.231Z,62.18
2022-09-09T19:24:02.972Z,63.06
2022-09-09T19:26:24.388Z,66.07
2022-09-09T19:28:47.033Z,67.40
2022-09-09T19:31:10.122Z,68.02
2022-09-09T19:33:33.351Z,69.39
2022-09-09T19:36:02.452Z,70.01
2022-09-09T19:38:23.908Z,70.23
2022-09-09T19:40:45.337Z,70.32
2022-09-09T19:43:07.260Z,70.16
2022-09-09T19:45:28.706Z,69.18
2022-09-09T19:47:50.159Z,69.51
2022-09-09T19:50:11.681Z,68.46
2022-09-09T19:52:33.095Z,69.60
2022-09-09T19:54:55.511Z,71.42
2022-09-09T19:57:17.002Z,73.24
2022-09-09T19:59:38.455Z,75.60
2022-09-09T20:01:59.940Z,76.08
2022-09-09T20:04:21.548Z,76.43
2022-09-09T20:06:44.358Z,76.34
2022-09-09T20:09:08.009Z,76.11
2022-09-09T20:11:29.484Z,76.77
2022-09-09T20:13:51.331Z,77.92
2022-09-09T20:16:15.925Z,77.12
2022-09-09T20:18:40.111Z,76.75
2022-09-09T20:21:05.437Z,76.67
2022-09-09T20:23:28.606Z,75.94
2022-09-09T20:25:50.053Z,76.37
2022-09-09T20:28:11.442Z,75.64
2022-09-09T20:30:38.186Z,73.67
2022-09-09T20:33:00.161Z,73.12
2022-09-09T20:35:22.654Z,72.98
2022-09-09T20:37:44.051Z,72.35
2022-09-09T20:40:05.971Z,72.83
2022-09-09T20:42:27.406Z,71.96
2022-09-09T20:44:48.991Z,71.61
2022-09-09T20:47:10.454Z,70.73
2022-09-09T20:49:35.154Z,71.54
2022-09-09T20:51:56.606Z,72.11
2022-09-09T20:54:21.109Z,71.02
2022-09-09T20:56:44.461Z,71.04
2022-09-09T20:59:07.991Z,71.45
2022-09-09T21:01:29.567Z,71.74
2022-09-09T21:03:51.120Z,71.37
2022-09-09T21:06:13.384Z,70.32
2022-09-09T21:08:35.563Z,70.50
2022-09-09T21:10:57.630Z,70.63
2022-09-09T21:13:20.818Z,70.90
2022-09-09T21:15:44.896Z,70.63
2022-09-09T21:18:06.340Z,71.62
2022-09-09T21:20:27.735Z,71.43
2022-09-09T21:22:49.200Z,71.61
2022-09-09T21:25:11.325Z,73.38
2022-09-09T21:27:32.937Z,72.43
2022-09-09T21:29:54.376Z,72.56
2022-09-09T21:32:16.613Z,71.82
2022-09-09T21:34:38.043Z,71.73
2022-09-09T21:36:59.452Z,71.67
2022-09-09T21:39:21.229Z,71.01
2022-09-09T21:41:42.685Z,70.70
2022-09-09T21:44:04.214Z,69.30
2022-09-09T21:46:27.097Z,70.13
2022-09-09T21:48:49.104Z,70.25
2022-09-09T21:51:15.787Z,71.35
2022-09-09T21:53:38.606Z,72.02
2022-09-09T21:56:06.963Z,72.47
2022-09-09T21:58:28.499Z,72.67
2022-09-09T22:00:49.888Z,71.56
2022-09-09T22:03:12.862Z,71.50
2022-09-09T22:05:34.723Z,73.56
2022-09-09T22:07:56.198Z,73.60
2022-09-09T22:10:20.087Z,74.82
2022-09-09T22:12:41.670Z,74.29
2022-09-09T22:15:03.769Z,75.28
2022-09-09T22:17:25.230Z,74.22
2022-09-09T22:19:46.819Z,73.30
2022-09-09T22:22:08.247Z,72.35
2022-09-09T22:24:29.838Z,71.37
2022-09-09T22:26:55.764Z,70.85
2022-09-09T22:29:17.530Z,70.19
2022-09-09T22:31:39.159Z,69.74
2022-09-09T22:34:00.612Z,69.29
2022-09-09T22:36:22.527Z,69.78
2022-09-09T22:38:44.040Z,69.79
2022-09-09T22:41:06.113Z,69.44
2022-09-09T22:43:27.584Z,69.88
2022-09-09T22:45:50.128Z,69.37
2022-09-09T22:48:12.971Z,69.52
2022-09-09T22:50:37.907Z,69.07
2022-09-09T22:53:04.413Z,68.96
2022-09-09T22:55:26.810Z,68.77
2022-09-09T22:57:48.222Z,68.58
2022-09-09T23:00:10.582Z,69.34
2022-09-09T23:02:32.161Z,69.32
2022-09-09T23:04:53.585Z,70.23
2022-09-09T23:07:20.567Z,70.09
2022-09-09T23:09:42.010Z,70.25
2022-09-09T23:12:04.142Z,70.14
2022-09-09T23:14:26.200Z,70.05
2022-09-09T23:16:47.617Z,69.84
2022-09-09T23:19:15.045Z,69.71
2022-09-09T23:21:38.637Z,70.49
2022-09-09T23:24:00.681Z,70.64
2022-09-09T23:26:27.151Z,71.73
2022-09-09T23:28:50.218Z,73.42
2022-09-09T23:31:14.561Z,74.81
2022-09-09T23:33:37.077Z,76.46
2022-09-09T23:36:02.794Z,76.66
2022-09-09T23:38:24.232Z,77.15
2022-09-09T23:40:46.950Z,79.11
2022-09-09T23:43:08.812Z,80.36
2022-09-09T23:45:30.228Z,78.22
2022-09-09T23:47:51.647Z,80.88
2022-09-09T23:50:13.099Z,82.33
2022-09-09T23:52:34.726Z,82.47
2022-09-09T23:54:56.573Z,82.14
2022-09-09T23:57:18.570Z,81.00
2022-09-09T23:59:39.983Z,79.88
